createdAt,value
2022-09-22T00:01:34.939Z,8.86
2022-09-22T00:04:07.669Z,8.60
2022-09-22T00:06:42.332Z,8.28
2022-09-22T00:09:13.775Z,8.25
2022-09-22T00:11:44.719Z,8.25
2022-09-22T00:14:16.608Z,8.23
2022-09-22T00:16:47.764Z,8.14
2022-09-22T00:19:19.518Z,8.10
2022-09-22T00:21:49.141Z,8.22
2022-09-22T00:24:18.213Z,8.02
2022-09-22T00:26:45.419Z,8.11
2022-09-22T00:29:15.575Z,8.22
2022-09-22T00:31:54.645Z,8.34
2022-09-22T00:34:25.649Z,8.37
2022-09-22T00:36:55.128Z,8.36
2022-09-22T00:39:25.026Z,8.38
2022-09-22T00:41:53.239Z,8.33
2022-09-22T00:44:34.997Z,8.37
2022-09-22T00:47:14.155Z,8.41
2022-09-22T00:49:53.432Z,8.47
2022-09-22T00:52:31.196Z,8.45
2022-09-22T00:55:03.402Z,8.47
2022-09-22T00:57:36.517Z,8.47
2022-09-22T01:00:09.266Z,8.44
2022-09-22T01:02:37.313Z,8.43
2022-09-22T01:05:05.567Z,8.45
2022-09-22T01:07:35.305Z,8.26
2022-09-22T01:10:02.113Z,8.31
2022-09-22T01:12:32.062Z,8.32
2022-09-22T01:15:19.331Z,8.34
2022-09-22T01:18:07.961Z,8.21
2022-09-22T01:21:13.766Z,8.14
2022-09-22T01:24:39.943Z,8.11
2022-09-22T01:27:50.878Z,8.08
2022-09-22T01:30:23.171Z,8.00
2022-09-22T01:33:16.923Z,7.92
2022-09-22T01:36:21.662Z,7.87
2022-09-22T01:39:03.901Z,7.88
2022-09-22T01:41:53.802Z,7.68
2022-09-22T01:44:31.174Z,7.71
2022-09-22T01:47:07.339Z,7.53
2022-09-22T01:49:40.284Z,7.57
2022-09-22T01:52:15.663Z,7.57
2022-09-22T01:55:02.709Z,7.56
2022-09-22T01:57:40.456Z,7.54
2022-09-22T02:00:10.863Z,7.47
2022-09-22T02:02:50.033Z,7.46
2022-09-22T02:05:30.243Z,7.40
2022-09-22T02:08:02.407Z,7.33
2022-09-22T02:10:40.152Z,7.33
2022-09-22T02:13:07.420Z,7.40
2022-09-22T02:15:34.568Z,7.39
2022-09-22T02:18:12.657Z,7.29
2022-09-22T02:20:40.967Z,7.28
2022-09-22T02:23:08.407Z,7.03
2022-09-22T02:25:39.837Z,6.99
2022-09-22T02:28:09.233Z,6.97
2022-09-22T02:30:36.507Z,6.86
2022-09-22T02:33:07.026Z,6.94
2022-09-22T02:35:40.427Z,7.01
2022-09-22T02:38:19.269Z,7.11
2022-09-22T02:40:57.890Z,7.19
2022-09-22T02:43:50.574Z,7.22
2022-09-22T02:46:24.886Z,7.26
2022-09-22T02:49:00.738Z,7.29
2022-09-22T02:51:30.298Z,7.31
2022-09-22T02:54:20.888Z,7.31
2022-09-22T02:56:48.016Z,7.33
2022-09-22T02:59:17.199Z,7.36
2022-09-22T03:01:44.303Z,7.36
2022-09-22T03:04:12.569Z,7.37
2022-09-22T03:06:42.468Z,7.41
2022-09-22T03:09:09.322Z,7.39
2022-09-22T03:11:36.167Z,7.40
2022-09-22T03:14:03.261Z,7.40
2022-09-22T03:16:30.286Z,7.37
2022-09-22T03:18:57.116Z,7.37
2022-09-22T03:21:25.377Z,7.12
2022-09-22T03:23:52.218Z,7.13
2022-09-22T03:26:21.453Z,7.13
2022-09-22T03:28:48.201Z,7.04
2022-09-22T03:31:15.069Z,7.07
2022-09-22T03:33:44.028Z,7.07
2022-09-22T03:36:10.941Z,7.08
2022-09-22T03:38:39.347Z,7.13
2022-09-22T03:41:12.010Z,7.08
2022-09-22T03:43:42.106Z,7.02
2022-09-22T03:46:09.494Z,6.98
2022-09-22T03:48:42.933Z,6.73
2022-09-22T03:51:12.332Z,6.66
2022-09-22T03:53:40.519Z,6.55
2022-09-22T03:56:10.155Z,6.50
2022-09-22T03:58:38.379Z,6.34
2022-09-22T04:01:08.250Z,6.28
2022-09-22T04:03:40.402Z,6.23
2022-09-22T04:06:08.037Z,6.09
2022-09-22T04:08:38.644Z,6.16
2022-09-22T04:11:07.655Z,6.10
2022-09-22T04:13:35.330Z,6.19
2022-09-22T04:16:04.761Z,6.26
2022-09-22T04:18:42.862Z,6.32
2022-09-22T04:21:17.707Z,6.42
2022-09-22T04:23:44.870Z,6.49
2022-09-22T04:26:13.515Z,6.37
2022-09-22T04:28:41.395Z,6.26
2022-09-22T04:31:11.934Z,6.42
2022-09-22T04:33:44.530Z,6.46
2022-09-22T04:36:11.630Z,6.49
2022-09-22T04:38:44.134Z,6.56
2022-09-22T04:41:14.237Z,6.63
2022-09-22T04:43:55.152Z,6.62
2022-09-22T04:46:28.378Z,6.58
2022-09-22T04:48:58.675Z,6.52
2022-09-22T04:51:25.578Z,6.50
2022-09-22T04:53:52.583Z,6.43
2022-09-22T04:56:21.205Z,6.31
2022-09-22T04:58:49.075Z,6.11
2022-09-22T05:01:15.909Z,6.11
2022-09-22T05:03:42.909Z,6.03
2022-09-22T05:06:09.811Z,5.85
2022-09-22T05:08:36.714Z,5.54
2022-09-22T05:11:03.695Z,5.60
2022-09-22T05:13:32.209Z,5.69
2022-09-22T05:15:59.031Z,5.72
2022-09-22T05:18:25.844Z,5.81
2022-09-22T05:20:52.969Z,6.02
2022-09-22T05:23:22.288Z,6.09
2022-09-22T05:25:49.281Z,6.37
2022-09-22T05:28:16.261Z,6.58
2022-09-22T05:30:44.460Z,6.70
2022-09-22T05:33:11.458Z,6.69
2022-09-22T05:35:38.383Z,6.72
2022-09-22T05:38:05.246Z,6.81
2022-09-22T05:40:33.264Z,6.71
2022-09-22T05:43:00.142Z,6.79
2022-09-22T05:45:27.431Z,6.90
2022-09-22T05:47:55.736Z,6.78
2022-09-22T05:50:22.628Z,6.45
2022-09-22T05:52:49.904Z,6.40
2022-09-22T05:55:17.291Z,6.49
2022-09-22T05:57:44.128Z,6.36
2022-09-22T06:00:12.658Z,6.50
2022-09-22T06:02:53.089Z,6.49
2022-09-22T06:05:22.473Z,6.45
2022-09-22T06:07:57.445Z,6.40
2022-09-22T06:10:24.251Z,6.64
2022-09-22T06:12:51.061Z,6.66
2022-09-22T06:15:17.854Z,6.81
2022-09-22T06:17:44.629Z,7.23
2022-09-22T06:20:11.711Z,7.53
2022-09-22T06:23:21.482Z,8.32
2022-09-22T06:25:48.869Z,8.69
2022-09-22T06:28:18.215Z,8.77
2022-09-22T06:30:45.314Z,8.47
2022-09-22T06:33:12.034Z,9.09
2022-09-22T06:35:41.679Z,9.74
2022-09-22T06:38:14.044Z,10.49
2022-09-22T06:40:42.068Z,10.87
2022-09-22T06:43:16.055Z,11.14
2022-09-22T06:45:58.478Z,12.00
2022-09-22T06:48:25.366Z,11.81
2022-09-22T06:50:54.117Z,11.73
2022-09-22T06:53:27.451Z,13.12
2022-09-22T06:55:59.055Z,15.00
2022-09-22T06:58:28.543Z,16.45
2022-09-22T07:03:47.143Z,18.80
2022-09-22T07:06:19.901Z,19.30
2022-09-22T07:08:49.691Z,19.93
2022-09-22T07:11:44.904Z,20.33
2022-09-22T07:15:03.086Z,20.92
2022-09-22T07:18:36.523Z,21.53
2022-09-22T07:25:21.872Z,22.33
2022-09-22T07:27:56.529Z,21.98
2022-09-22T07:30:40.430Z,21.32
2022-09-22T07:33:07.670Z,20.95
2022-09-22T07:43:45.509Z,20.53
2022-09-22T07:46:56.819Z,19.93
2022-09-22T07:58:53.439Z,18.86
2022-09-22T08:01:38.295Z,20.07
2022-09-22T08:04:06.086Z,20.29
2022-09-22T08:06:34.767Z,19.73
2022-09-22T08:09:01.751Z,19.49
2022-09-22T08:11:29.464Z,19.59
2022-09-22T08:14:01.469Z,19.98
2022-09-22T08:16:34.161Z,20.58
2022-09-22T08:19:04.073Z,20.97
2022-09-22T08:21:32.759Z,20.67
2022-09-22T08:24:03.105Z,21.39
2022-09-22T08:26:29.952Z,21.79
2022-09-22T08:28:58.242Z,22.27
2022-09-22T08:31:27.158Z,22.78
2022-09-22T08:33:58.724Z,23.30
2022-09-22T08:36:32.288Z,22.05
2022-09-22T08:39:00.982Z,21.71
2022-09-22T08:41:45.099Z,22.03
2022-09-22T08:44:21.834Z,21.77
2022-09-22T08:46:50.623Z,21.64
2022-09-22T08:49:28.142Z,21.57
2022-09-22T08:52:00.563Z,21.11
2022-09-22T08:54:30.740Z,21.26
2022-09-22T08:57:28.361Z,20.67
2022-09-22T09:00:05.553Z,20.69
2022-09-22T09:02:39.583Z,20.69
2022-09-22T09:06:03.731Z,20.50
2022-09-22T09:09:11.839Z,20.18
2022-09-22T09:12:09.130Z,20.36
2022-09-22T09:15:24.547Z,20.47
2022-09-22T09:18:01.749Z,20.82
2022-09-22T09:20:38.605Z,20.79
2022-09-22T09:23:17.946Z,20.59
2022-09-22T09:26:08.064Z,20.89
2022-09-22T09:28:41.885Z,21.08
2022-09-22T09:32:25.637Z,21.23
2022-09-22T09:34:56.082Z,22.67
2022-09-22T09:37:31.059Z,23.60
2022-09-22T09:43:46.369Z,24.87
2022-09-22T09:46:30.326Z,25.64
2022-09-22T09:49:08.652Z,26.24
2022-09-22T09:55:49.483Z,23.51
2022-09-22T09:58:16.329Z,22.94
2022-09-22T10:00:57.381Z,23.86
2022-09-22T10:03:32.576Z,24.90
2022-09-22T10:06:03.868Z,25.32
2022-09-22T10:08:34.204Z,25.80
2022-09-22T10:11:04.630Z,25.35
2022-09-22T10:13:35.033Z,25.08
2022-09-22T10:16:20.570Z,25.31
2022-09-22T10:18:50.472Z,25.90
2022-09-22T10:21:21.105Z,26.28
2022-09-22T10:23:49.675Z,26.12
2022-09-22T10:26:25.528Z,27.13
2022-09-22T10:29:16.096Z,27.78
2022-09-22T10:32:01.997Z,27.66
2022-09-22T10:34:32.722Z,27.73
2022-09-22T10:37:01.669Z,27.59
2022-09-22T10:39:39.747Z,27.87
2022-09-22T10:42:22.659Z,28.33
2022-09-22T10:44:52.682Z,28.76
2022-09-22T10:47:33.464Z,28.79
2022-09-22T10:51:12.665Z,29.02
2022-09-22T10:54:58.063Z,29.68
2022-09-22T10:58:21.998Z,29.59
2022-09-22T11:05:49.813Z,29.84
2022-09-22T11:08:26.496Z,30.04
2022-09-22T11:11:34.751Z,30.12
2022-09-22T11:15:33.215Z,29.37
2022-09-22T11:19:33.706Z,29.51
2022-09-22T11:23:03.160Z,29.41
2022-09-22T11:26:11.716Z,29.63
2022-09-22T11:29:19.040Z,29.99
2022-09-22T11:32:05.469Z,30.17
2022-09-22T11:34:55.599Z,30.67
2022-09-22T11:37:44.792Z,30.56
2022-09-22T11:40:29.948Z,30.61
2022-09-22T11:43:21.516Z,30.78
2022-09-22T11:46:00.591Z,28.73
2022-09-22T11:48:49.943Z,28.69
2022-09-22T11:51:51.715Z,25.95
2022-09-22T11:54:45.843Z,26.34
2022-09-22T11:57:18.816Z,26.89
2022-09-22T11:59:56.168Z,24.48
2022-09-22T12:02:33.067Z,22.60
2022-09-22T12:05:13.166Z,20.87
2022-09-22T12:07:53.662Z,21.97
2022-09-22T12:10:32.902Z,21.68
2022-09-22T12:13:01.305Z,20.95
2022-09-22T12:15:41.185Z,20.41
2022-09-22T12:18:17.204Z,19.45
2022-09-22T12:20:58.652Z,19.02
2022-09-22T12:23:40.431Z,18.72
2022-09-22T12:26:12.307Z,18.83
2022-09-22T12:28:43.368Z,18.34
2022-09-22T12:31:14.626Z,18.32
2022-09-22T12:33:53.824Z,18.40
2022-09-22T12:36:31.817Z,18.49
2022-09-22T12:39:18.521Z,18.60
2022-09-22T12:42:08.698Z,18.76
2022-09-22T12:44:46.496Z,18.97
2022-09-22T12:47:23.495Z,18.91
2022-09-22T12:49:57.299Z,18.73
2022-09-22T12:53:04.856Z,18.77
2022-09-22T12:55:34.352Z,18.65
2022-09-22T12:58:03.211Z,18.70
2022-09-22T13:00:35.637Z,18.95
2022-09-22T13:03:40.483Z,19.15
2022-09-22T13:06:53.453Z,19.29
2022-09-22T13:09:23.103Z,19.49
2022-09-22T13:12:42.931Z,19.59
2022-09-22T13:15:19.680Z,19.31
2022-09-22T13:17:49.216Z,19.58
2022-09-22T13:20:21.054Z,19.42
2022-09-22T13:22:48.277Z,19.56
2022-09-22T13:25:21.992Z,19.37
2022-09-22T13:28:02.409Z,19.26
2022-09-22T13:30:30.766Z,18.83
2022-09-22T13:32:57.910Z,18.89
2022-09-22T13:35:27.526Z,19.17
2022-09-22T13:37:57.132Z,19.38
2022-09-22T13:40:28.630Z,19.53
2022-09-22T13:43:02.210Z,19.68
2022-09-22T13:45:30.926Z,19.91
2022-09-22T13:48:09.942Z,19.28
2022-09-22T13:50:48.728Z,19.14
2022-09-22T13:53:20.741Z,19.03
2022-09-22T13:55:50.957Z,19.25
2022-09-22T13:58:29.032Z,19.18
2022-09-22T14:01:26.332Z,19.12
2022-09-22T14:04:38.945Z,18.98
2022-09-22T14:07:31.072Z,18.93
2022-09-22T14:10:04.738Z,18.74
2022-09-22T14:15:50.330Z,18.76
2022-09-22T14:18:25.841Z,18.87
2022-09-22T14:20:54.785Z,18.87
2022-09-22T14:23:28.439Z,18.82
2022-09-22T14:26:01.474Z,18.66
2022-09-22T14:28:36.277Z,18.60
2022-09-22T14:31:15.197Z,18.57
2022-09-22T14:33:44.056Z,18.72
2022-09-22T14:36:19.058Z,18.75
2022-09-22T14:39:01.876Z,18.81
2022-09-22T14:41:37.146Z,18.75
2022-09-22T14:44:23.516Z,18.77
2022-09-22T14:46:57.773Z,18.77
2022-09-22T14:49:41.868Z,18.88
2022-09-22T14:52:24.363Z,18.78
2022-09-22T14:54:55.063Z,18.77
2022-09-22T14:57:23.134Z,18.67
2022-09-22T14:59:57.349Z,18.67
2022-09-22T15:02:27.868Z,18.66
2022-09-22T15:05:03.621Z,18.71
2022-09-22T15:07:35.404Z,18.70
2022-09-22T15:10:07.285Z,18.67
2022-09-22T15:12:38.636Z,18.63
2022-09-22T15:15:21.783Z,18.63
2022-09-22T15:17:51.010Z,18.67
2022-09-22T15:20:19.634Z,18.56
2022-09-22T15:22:46.970Z,18.60
2022-09-22T15:25:16.365Z,18.63
2022-09-22T15:27:43.624Z,18.56
2022-09-22T15:30:15.223Z,18.55
2022-09-22T15:32:45.389Z,18.52
2022-09-22T15:35:13.198Z,18.55
2022-09-22T15:38:38.011Z,18.60
2022-09-22T15:41:43.118Z,18.54
2022-09-22T15:44:41.022Z,18.60
2022-09-22T15:47:21.282Z,18.52
2022-09-22T15:49:48.518Z,18.50
2022-09-22T15:52:46.984Z,18.54
2022-09-22T15:58:43.325Z,18.50
2022-09-22T16:01:10.849Z,18.49
2022-09-22T16:03:41.395Z,18.43
2022-09-22T16:06:14.877Z,18.46
2022-09-22T16:08:45.699Z,18.40
2022-09-22T16:11:16.057Z,18.36
2022-09-22T16:13:44.719Z,18.35
2022-09-22T16:16:12.297Z,18.35
2022-09-22T16:18:39.617Z,18.31
2022-09-22T16:21:17.302Z,18.27
2022-09-22T16:23:44.205Z,18.26
2022-09-22T16:26:46.225Z,18.25
2022-09-22T16:29:24.907Z,18.15
2022-09-22T16:31:52.072Z,18.11
2022-09-22T16:34:19.250Z,18.09
2022-09-22T16:36:57.215Z,18.05
2022-09-22T16:40:53.453Z,17.96
2022-09-22T16:43:56.735Z,17.83
2022-09-22T16:46:42.263Z,17.83
2022-09-22T16:49:14.628Z,17.79
2022-09-22T16:51:47.052Z,17.67
2022-09-22T16:54:29.785Z,17.59
2022-09-22T16:57:03.233Z,17.55
2022-09-22T16:59:30.190Z,17.51
2022-09-22T17:01:59.045Z,17.42
2022-09-22T17:04:26.152Z,17.31
2022-09-22T17:06:53.070Z,17.23
2022-09-22T17:09:20.330Z,17.16
2022-09-22T17:11:50.786Z,17.12
2022-09-22T17:14:20.206Z,17.07
2022-09-22T17:16:49.264Z,17.03
2022-09-22T17:27:00.501Z,16.67
2022-09-22T17:29:30.605Z,16.66
2022-09-22T17:32:14.249Z,16.46
2022-09-22T17:34:49.972Z,16.45
2022-09-22T17:37:40.546Z,16.34
2022-09-22T17:40:30.132Z,16.31
2022-09-22T17:43:29.298Z,16.20
2022-09-22T18:00:55.968Z,15.71
2022-09-22T18:13:12.724Z,15.07
2022-09-22T18:16:22.583Z,14.92
2022-09-22T18:19:06.194Z,14.86
2022-09-22T18:21:34.389Z,14.74
2022-09-22T18:24:02.198Z,14.65
2022-09-22T18:26:29.443Z,14.62
2022-09-22T18:28:58.234Z,14.51
2022-09-22T18:31:30.879Z,14.46
2022-09-22T18:34:00.505Z,14.56
2022-09-22T18:36:29.759Z,14.56
2022-09-22T18:38:56.743Z,14.63
2022-09-22T18:41:24.835Z,14.57
2022-09-22T18:43:52.160Z,14.40
2022-09-22T18:46:22.218Z,14.37
2022-09-22T18:48:51.668Z,14.27
2022-09-22T18:51:18.588Z,14.25
2022-09-22T18:53:45.964Z,14.15
2022-09-22T18:56:25.513Z,14.03
2022-09-22T18:58:56.330Z,13.98
2022-09-22T19:01:26.813Z,13.94
2022-09-22T19:03:56.323Z,13.94
2022-09-22T19:06:25.964Z,13.78
2022-09-22T19:08:52.969Z,13.91
2022-09-22T19:11:20.494Z,13.93
2022-09-22T19:13:50.255Z,13.92
2022-09-22T19:16:17.350Z,13.95
2022-09-22T19:18:44.272Z,13.82
2022-09-22T19:21:14.429Z,13.88
2022-09-22T19:23:41.635Z,13.94
2022-09-22T19:26:08.957Z,13.89
2022-09-22T19:28:36.090Z,13.76
2022-09-22T19:31:03.116Z,13.66
2022-09-22T19:33:30.140Z,13.63
2022-09-22T19:35:57.612Z,13.36
2022-09-22T19:38:25.914Z,13.24
2022-09-22T19:40:53.132Z,13.29
2022-09-22T19:43:20.083Z,13.31
2022-09-22T19:45:47.035Z,13.11
2022-09-22T19:48:17.054Z,13.07
2022-09-22T19:50:44.851Z,13.09
2022-09-22T19:53:11.860Z,13.11
2022-09-22T19:55:40.887Z,12.79
2022-09-22T19:58:08.233Z,12.61
2022-09-22T20:00:35.851Z,12.55
2022-09-22T20:03:03.551Z,12.55
2022-09-22T20:05:34.650Z,12.47
2022-09-22T20:08:02.449Z,12.45
2022-09-22T20:10:30.202Z,12.54
2022-09-22T20:12:59.490Z,12.40
2022-09-22T20:15:28.282Z,12.19
2022-09-22T20:17:55.842Z,12.17
2022-09-22T20:20:24.964Z,12.24
2022-09-22T20:22:58.432Z,12.38
2022-09-22T20:25:32.709Z,12.42
2022-09-22T20:28:01.804Z,12.53
2022-09-22T20:30:33.808Z,12.60
2022-09-22T20:33:05.709Z,12.63
2022-09-22T20:35:34.169Z,12.70
2022-09-22T20:38:03.342Z,12.72
2022-09-22T21:19:49.165Z,12.05
2022-09-22T21:24:03.069Z,12.02
2022-09-22T21:26:34.234Z,12.12
